This is the latest recevied weather packets stored in our database for station/object KB9OQF-5. If no packets are shown the sender has not sent any weather packets the latest 10 day(s).
| Time | Temp. | Humidity | Pressure | Rain* | Wind** | Luminosity | Snow |
|---|---|---|---|---|---|---|---|
| 1778042087 | 8.33° C | 85% | 962 hPa | 0 mm | - | - | - |
| 1778041037 | 8.33° C | 86% | 963 hPa | 0 mm | - | - | - |
| 1778040337 | 8.33° C | 84% | 963 hPa | 0 mm | - | - | - |
| 1778039637 | 8.33° C | 84% | 963 hPa | 0 mm | - | - | - |
| 1778038237 | 8.33° C | 84% | 963 hPa | 0 mm | - | - | - |
| 1778037187 | 8.33° C | 83% | 963 hPa | 0 mm | - | - | - |
| 1778036837 | 8.33° C | 82% | 963 hPa | 0 mm | - | - | - |
| 1778036137 | 8.33° C | 82% | 963 hPa | 0 mm | - | - | - |
| 1778035787 | 8.33° C | 82% | 962 hPa | 0 mm | - | - | - |
| 1777964387 | 13.89° C | 90% | 960 hPa | 0 mm | - | - | - |
| 1777843635 | 10.56° C | 74% | 967 hPa | 0 mm | - | - | - |
| 1777797435 | 4.44° C | 58% | 971 hPa | 0 mm | - | - | - |
| 1777792535 | 3.89° C | 63% | 971 hPa | 0 mm | - | - | - |
| 1777790785 | 3.89° C | 61% | 971 hPa | 0 mm | - | - | - |
| 1777785535 | 4.44° C | 60% | 972 hPa | 0 mm | - | - | - |
| 1777299028 | 15° C | 70% | 971 hPa | 0 mm | - | - | - |
| 1777297278 | 13.89° C | 71% | 972 hPa | 0 mm | - | - | - |
| 1777273128 | 9.44° C | 88% | 974 hPa | 0 mm | - | - | - |
| 1777265777 | 10.56° C | 85% | 974 hPa | 0 mm | - | - | - |
| 1777263677 | 11.11° C | 82% | 974 hPa | 0 mm | - | - | - |
| 1777263327 | 11.11° C | 81% | 974 hPa | 0 mm | - | - | - |
| 1777254227 | 12.78° C | 70% | 974 hPa | 0 mm | - | - | - |
| 1777196477 | 10.56° C | 76% | 974 hPa | 0 mm | - | - | - |
| 1777196127 | 10.56° C | 75% | 974 hPa | 0 mm | - | - | - |
| 1777190177 | 11.67° C | 72% | 973 hPa | 0 mm | - | - | - |
* Rain latest hour (hover to see other rain measurements)
** Current wind speed in m/s (hover to see current wind gust speed)